Aviation Digital Data Service (ADDS)

Output produced by METARs form (0011 UTC 23 March 2019)
found at http://www.aviationweather.gov/metar/data/
 
METAR text: EICK 230000Z 23002KT 9999 FEW025 BKN170 05/02 Q1030 NOSIG
Conditions at: EICK (CORK ARPT/CORCAI, IE) observed 0000 UTC 23 March 2019
Temperature: 5.0°C (41°F)
Dewpoint: 2.0°C (36°F) [RH = 81%]
Pressure (altimeter): 30.41 inches Hg (1030.0 mb)
Winds: from the SW (230 degrees) at 2 MPH (2 knots; 1.0 m/s)
Visibility: 6 or more miles (10+ km)
Ceiling: 17000 feet AGL
Clouds: few clouds at 2500 feet AGL
broken clouds at 17000 feet AGL
Weather: no significant weather observed at this time

METAR text: EICK 222330Z 30004KT 9999 FEW025 BKN180 05/02 Q1030 NOSIG
Conditions at: EICK (CORK ARPT/CORCAI, IE) observed 2330 UTC 22 March 2019
Temperature: 5.0°C (41°F)
Dewpoint: 2.0°C (36°F) [RH = 81%]
Pressure (altimeter): 30.41 inches Hg (1030.0 mb)
Winds: from the WNW (300 degrees) at 5 MPH (4 knots; 2.1 m/s)
Visibility: 6 or more miles (10+ km)
Ceiling: 18000 feet AGL
Clouds: few clouds at 2500 feet AGL
broken clouds at 18000 feet AGL
Weather: no significant weather observed at this time

METAR text: EICK 222300Z 31003KT 9999 FEW025 BKN190 05/02 Q1030 NOSIG
Conditions at: EICK (CORK ARPT/CORCAI, IE) observed 2300 UTC 22 March 2019
Temperature: 5.0°C (41°F)
Dewpoint: 2.0°C (36°F) [RH = 81%]
Pressure (altimeter): 30.41 inches Hg (1030.0 mb)
Winds: from the NW (310 degrees) at 3 MPH (3 knots; 1.5 m/s)
Visibility: 6 or more miles (10+ km)
Ceiling: 19000 feet AGL
Clouds: few clouds at 2500 feet AGL
broken clouds at 19000 feet AGL
Weather: no significant weather observed at this time

METAR text: EICK 222230Z 32006KT 9999 FEW025 SCT170 06/02 Q1030 NOSIG
Conditions at: EICK (CORK ARPT/CORCAI, IE) observed 2230 UTC 22 March 2019
Temperature: 6.0°C (43°F)
Dewpoint: 2.0°C (36°F) [RH = 75%]
Pressure (altimeter): 30.41 inches Hg (1030.0 mb)
Winds: from the NW (320 degrees) at 7 MPH (6 knots; 3.1 m/s)
Visibility: 6 or more miles (10+ km)
Ceiling: at least 12,000 feet AGL
Clouds: few clouds at 2500 feet AGL
scattered clouds at 17000 feet AGL
Weather: no significant weather observed at this time

METAR text: EICK 222200Z 29003KT 9999 FEW025 BKN170 06/01 Q1030 NOSIG
Conditions at: EICK (CORK ARPT/CORCAI, IE) observed 2200 UTC 22 March 2019
Temperature: 6.0°C (43°F)
Dewpoint: 1.0°C (34°F) [RH = 70%]
Pressure (altimeter): 30.41 inches Hg (1030.0 mb)
Winds: from the WNW (290 degrees) at 3 MPH (3 knots; 1.5 m/s)
Visibility: 6 or more miles (10+ km)
Ceiling: 17000 feet AGL
Clouds: few clouds at 2500 feet AGL
broken clouds at 17000 feet AGL
Weather: no significant weather observed at this time

METAR text: EICK 222130Z 32004KT 9999 FEW025 BKN190 06/02 Q1030 NOSIG
Conditions at: EICK (CORK ARPT/CORCAI, IE) observed 2130 UTC 22 March 2019
Temperature: 6.0°C (43°F)
Dewpoint: 2.0°C (36°F) [RH = 75%]
Pressure (altimeter): 30.41 inches Hg (1030.0 mb)
Winds: from the NW (320 degrees) at 5 MPH (4 knots; 2.1 m/s)
Visibility: 6 or more miles (10+ km)
Ceiling: 19000 feet AGL
Clouds: few clouds at 2500 feet AGL
broken clouds at 19000 feet AGL
Weather: no significant weather observed at this time

METAR text: EICK 222100Z 32006KT 9999 FEW025 BKN190 07/01 Q1029 NOSIG
Conditions at: EICK (CORK ARPT/CORCAI, IE) observed 2100 UTC 22 March 2019
Temperature: 7.0°C (45°F)
Dewpoint: 1.0°C (34°F) [RH = 66%]
Pressure (altimeter): 30.38 inches Hg (1029.0 mb)
Winds: from the NW (320 degrees) at 7 MPH (6 knots; 3.1 m/s)
Visibility: 6 or more miles (10+ km)
Ceiling: 19000 feet AGL
Clouds: few clouds at 2500 feet AGL
broken clouds at 19000 feet AGL
Weather: no significant weather observed at this time

METAR text: EICK 222030Z 32008KT 9999 FEW025 BKN180 07/02 Q1029 NOSIG
Conditions at: EICK (CORK ARPT/CORCAI, IE) observed 2030 UTC 22 March 2019
Temperature: 7.0°C (45°F)
Dewpoint: 2.0°C (36°F) [RH = 70%]
Pressure (altimeter): 30.38 inches Hg (1029.0 mb)
Winds: from the NW (320 degrees) at 9 MPH (8 knots; 4.1 m/s)
Visibility: 6 or more miles (10+ km)
Ceiling: 18000 feet AGL
Clouds: few clouds at 2500 feet AGL
broken clouds at 18000 feet AGL
Weather: no significant weather observed at this time

METAR text: EICK 222000Z 32008KT 9999 FEW025 BKN180 07/02 Q1029 NOSIG
Conditions at: EICK (CORK ARPT/CORCAI, IE) observed 2000 UTC 22 March 2019
Temperature: 7.0°C (45°F)
Dewpoint: 2.0°C (36°F) [RH = 70%]
Pressure (altimeter): 30.38 inches Hg (1029.0 mb)
Winds: from the NW (320 degrees) at 9 MPH (8 knots; 4.1 m/s)
Visibility: 6 or more miles (10+ km)
Ceiling: 18000 feet AGL
Clouds: few clouds at 2500 feet AGL
broken clouds at 18000 feet AGL
Weather: no significant weather observed at this time

METAR text: EICK 221930Z 32007KT 9999 FEW025 BKN180 07/03 Q1028 NOSIG
Conditions at: EICK (CORK ARPT/CORCAI, IE) observed 1930 UTC 22 March 2019
Temperature: 7.0°C (45°F)
Dewpoint: 3.0°C (37°F) [RH = 76%]
Pressure (altimeter): 30.35 inches Hg (1028.0 mb)
Winds: from the NW (320 degrees) at 8 MPH (7 knots; 3.6 m/s)
Visibility: 6 or more miles (10+ km)
Ceiling: 18000 feet AGL
Clouds: few clouds at 2500 feet AGL
broken clouds at 18000 feet AGL
Weather: no significant weather observed at this time

METAR text: EICK 221900Z 31008KT 9999 FEW025 BKN200 08/03 Q1027 NOSIG
Conditions at: EICK (CORK ARPT/CORCAI, IE) observed 1900 UTC 22 March 2019
Temperature: 8.0°C (46°F)
Dewpoint: 3.0°C (37°F) [RH = 71%]
Pressure (altimeter): 30.32 inches Hg (1027.0 mb)
Winds: from the NW (310 degrees) at 9 MPH (8 knots; 4.1 m/s)
Visibility: 6 or more miles (10+ km)
Ceiling: 20000 feet AGL
Clouds: few clouds at 2500 feet AGL
broken clouds at 20000 feet AGL
Weather: no significant weather observed at this time

METAR text: EICK 221830Z 31007KT 9999 FEW025 BKN200 08/03 Q1027 NOSIG
Conditions at: EICK (CORK ARPT/CORCAI, IE) observed 1830 UTC 22 March 2019
Temperature: 8.0°C (46°F)
Dewpoint: 3.0°C (37°F) [RH = 71%]
Pressure (altimeter): 30.32 inches Hg (1027.0 mb)
Winds: from the NW (310 degrees) at 8 MPH (7 knots; 3.6 m/s)
Visibility: 6 or more miles (10+ km)
Ceiling: 20000 feet AGL
Clouds: few clouds at 2500 feet AGL
broken clouds at 20000 feet AGL
Weather: no significant weather observed at this time

METAR text: EICK 221800Z 31008KT 9999 FEW025 BKN210 09/02 Q1027 NOSIG
Conditions at: EICK (CORK ARPT/CORCAI, IE) observed 1800 UTC 22 March 2019
Temperature: 9.0°C (48°F)
Dewpoint: 2.0°C (36°F) [RH = 61%]
Pressure (altimeter): 30.32 inches Hg (1027.0 mb)
Winds: from the NW (310 degrees) at 9 MPH (8 knots; 4.1 m/s)
Visibility: 6 or more miles (10+ km)
Ceiling: 21000 feet AGL
Clouds: few clouds at 2500 feet AGL
broken clouds at 21000 feet AGL
Weather: no significant weather observed at this time

METAR text: EICK 221730Z 31013KT 9999 FEW022 SCT040 BKN100 09/04 Q1026 NOSIG
Conditions at: EICK (CORK ARPT/CORCAI, IE) observed 1730 UTC 22 March 2019
Temperature: 9.0°C (48°F)
Dewpoint: 4.0°C (39°F) [RH = 71%]
Pressure (altimeter): 30.30 inches Hg (1026.0 mb)
Winds: from the NW (310 degrees) at 15 MPH (13 knots; 6.7 m/s)
Visibility: 6 or more miles (10+ km)
Ceiling: 10000 feet AGL
Clouds: few clouds at 2200 feet AGL
scattered clouds at 4000 feet AGL
broken clouds at 10000 feet AGL
Weather: no significant weather observed at this time

METAR text: EICK 221700Z 31012KT 9999 FEW024 SCT040 BKN100 10/04 Q1025 NOSIG
Conditions at: EICK (CORK ARPT/CORCAI, IE) observed 1700 UTC 22 March 2019
Temperature: 10.0°C (50°F)
Dewpoint: 4.0°C (39°F) [RH = 66%]
Pressure (altimeter): 30.27 inches Hg (1025.0 mb)
Winds: from the NW (310 degrees) at 14 MPH (12 knots; 6.2 m/s)
Visibility: 6 or more miles (10+ km)
Ceiling: 10000 feet AGL
Clouds: few clouds at 2400 feet AGL
scattered clouds at 4000 feet AGL
broken clouds at 10000 feet AGL
Weather: no significant weather observed at this time

METAR text: EICK 221630Z 31008KT 290V350 9999 FEW020 SCT026 BKN060 10/05 Q1025 NOSIG
Conditions at: EICK (CORK ARPT/CORCAI, IE) observed 1630 UTC 22 March 2019
Temperature: 10.0°C (50°F)
Dewpoint: 5.0°C (41°F) [RH = 71%]
Pressure (altimeter): 30.27 inches Hg (1025.0 mb)
Winds: from the NW (310 degrees) at 9 MPH (8 knots; 4.1 m/s)
Visibility: 6 or more miles (10+ km)
Ceiling: 6000 feet AGL
Clouds: few clouds at 2000 feet AGL
scattered clouds at 2600 feet AGL
broken clouds at 6000 feet AGL
Weather: no significant weather observed at this time

METAR text: EICK 221600Z 32012KT 9999 FEW020 SCT026 BKN060 10/06 Q1025 NOSIG
Conditions at: EICK (CORK ARPT/CORCAI, IE) observed 1600 UTC 22 March 2019
Temperature: 10.0°C (50°F)
Dewpoint: 6.0°C (43°F) [RH = 76%]
Pressure (altimeter): 30.27 inches Hg (1025.0 mb)
Winds: from the NW (320 degrees) at 14 MPH (12 knots; 6.2 m/s)
Visibility: 6 or more miles (10+ km)
Ceiling: 6000 feet AGL
Clouds: few clouds at 2000 feet AGL
scattered clouds at 2600 feet AGL
broken clouds at 6000 feet AGL
Weather: no significant weather observed at this time

METAR text: EICK 221530Z 31011KT 9999 SCT017 SCT030 BKN070 10/06 Q1025 NOSIG
Conditions at: EICK (CORK ARPT/CORCAI, IE) observed 1530 UTC 22 March 2019
Temperature: 10.0°C (50°F)
Dewpoint: 6.0°C (43°F) [RH = 76%]
Pressure (altimeter): 30.27 inches Hg (1025.0 mb)
Winds: from the NW (310 degrees) at 13 MPH (11 knots; 5.7 m/s)
Visibility: 6 or more miles (10+ km)
Ceiling: 7000 feet AGL
Clouds: scattered clouds at 1700 feet AGL
scattered clouds at 3000 feet AGL
broken clouds at 7000 feet AGL
Weather: no significant weather observed at this time

METAR text: EICK 221500Z 31011KT 9999 FEW019 SCT028 BKN070 09/06 Q1025 NOSIG
Conditions at: EICK (CORK ARPT/CORCAI, IE) observed 1500 UTC 22 March 2019
Temperature: 9.0°C (48°F)
Dewpoint: 6.0°C (43°F) [RH = 81%]
Pressure (altimeter): 30.27 inches Hg (1025.0 mb)
Winds: from the NW (310 degrees) at 13 MPH (11 knots; 5.7 m/s)
Visibility: 6 or more miles (10+ km)
Ceiling: 7000 feet AGL
Clouds: few clouds at 1900 feet AGL
scattered clouds at 2800 feet AGL
broken clouds at 7000 feet AGL
Weather: no significant weather observed at this time

METAR text: EICK 221430Z 31014KT 9999 FEW007 SCT012 BKN020 09/07 Q1024 NOSIG
Conditions at: EICK (CORK ARPT/CORCAI, IE) observed 1430 UTC 22 March 2019
Temperature: 9.0°C (48°F)
Dewpoint: 7.0°C (45°F) [RH = 87%]
Pressure (altimeter): 30.24 inches Hg (1024.0 mb)
Winds: from the NW (310 degrees) at 16 MPH (14 knots; 7.2 m/s)
Visibility: 6 or more miles (10+ km)
Ceiling: 2000 feet AGL
Clouds: few clouds at 700 feet AGL
scattered clouds at 1200 feet AGL
broken clouds at 2000 feet AGL
Weather: no significant weather observed at this time

METAR text: EICK 221400Z 32010KT 9999 SCT007 BKN014 09/08 Q1024 BECMG BKN020
Conditions at: EICK (CORK ARPT/CORCAI, IE) observed 1400 UTC 22 March 2019
Temperature: 9.0°C (48°F)
Dewpoint: 8.0°C (46°F) [RH = 93%]
Pressure (altimeter): 30.24 inches Hg (1024.0 mb)
Winds: from the NW (320 degrees) at 12 MPH (10 knots; 5.1 m/s)
Visibility: 6 or more miles (10+ km)
Ceiling: 1400 feet AGL
Clouds: scattered clouds at 700 feet AGL
broken clouds at 1400 feet AGL
Weather: no significant weather observed at this time

METAR text: EICK 221330Z 31011KT 9999 -RA SCT005 BKN010 09/08 Q1023 TEMPO 4000
Conditions at: EICK (CORK ARPT/CORCAI, IE) observed 1330 UTC 22 March 2019
Temperature: 9.0°C (48°F)
Dewpoint: 8.0°C (46°F) [RH = 93%]
Pressure (altimeter): 30.21 inches Hg (1023.0 mb)
Winds: from the NW (310 degrees) at 13 MPH (11 knots; 5.7 m/s)
Visibility: 6 or more miles (10+ km)
Ceiling: 1000 feet AGL
Clouds: scattered clouds at 500 feet AGL
broken clouds at 1000 feet AGL
Weather: -RA  (light rain)

METAR text: EICK 221230Z 23011KT 9999 -DZ BKN003 OVC011 10/10 Q1023 TEMPO 4000
Conditions at: EICK (CORK ARPT/CORCAI, IE) observed 1230 UTC 22 March 2019
Temperature: 10.0°C (50°F)
Dewpoint: 10.0°C (50°F) [RH = 100%]
Pressure (altimeter): 30.21 inches Hg (1023.0 mb)
Winds: from the SW (230 degrees) at 13 MPH (11 knots; 5.7 m/s)
Visibility: 6 or more miles (10+ km)
Ceiling: 300 feet AGL
Clouds: broken clouds at 300 feet AGL
overcast cloud deck at 1100 feet AGL
Weather: -DZ  (light drizzle)

METAR text: EICK 221200Z 22013KT 7000 -DZ FEW001 BKN003 10/09 Q1023 TEMPO 4000
Conditions at: EICK (CORK ARPT/CORCAI, IE) observed 1200 UTC 22 March 2019
Temperature: 10.0°C (50°F)
Dewpoint: 9.0°C (48°F) [RH = 93%]
Pressure (altimeter): 30.21 inches Hg (1023.0 mb)
Winds: from the SW (220 degrees) at 15 MPH (13 knots; 6.7 m/s)
Visibility: 4 miles ( 7 km)
Ceiling: 300 feet AGL
Clouds: few clouds at 100 feet AGL
broken clouds at 300 feet AGL
Weather: -DZ  (light drizzle)

METAR text: EICK 221130Z 22014KT 6000 -RADZ FEW001 BKN003 BKN010 10/09 Q1023 TEMPO 4000
Conditions at: EICK (CORK ARPT/CORCAI, IE) observed 1130 UTC 22 March 2019
Temperature: 10.0°C (50°F)
Dewpoint: 9.0°C (48°F) [RH = 93%]
Pressure (altimeter): 30.21 inches Hg (1023.0 mb)
Winds: from the SW (220 degrees) at 16 MPH (14 knots; 7.2 m/s)
Visibility: 4 miles ( 6 km)
Ceiling: 300 feet AGL
Clouds: few clouds at 100 feet AGL
broken clouds at 300 feet AGL
broken clouds at 1000 feet AGL
Weather: -RA -DZ  (light rain, light drizzle)

METAR text: EICK 221100Z 22015KT 3000 -DZ FEW001 BKN003 09/09 Q1023 NOSIG
Conditions at: EICK (CORK ARPT/CORCAI, IE) observed 1100 UTC 22 March 2019
Temperature: 9.0°C (48°F)
Dewpoint: 9.0°C (48°F) [RH = 100%]
Pressure (altimeter): 30.21 inches Hg (1023.0 mb)
Winds: from the SW (220 degrees) at 17 MPH (15 knots; 7.7 m/s)
Visibility: 1.86 miles (2.99 km)
Ceiling: 300 feet AGL
Clouds: few clouds at 100 feet AGL
broken clouds at 300 feet AGL
Weather: -DZ  (light drizzle)

METAR text: EICK 221030Z 22015KT 5000 BR FEW001 BKN003 BKN008 09/09 Q1023 TEMPO 4000
Conditions at: EICK (CORK ARPT/CORCAI, IE) observed 1030 UTC 22 March 2019
Temperature: 9.0°C (48°F)
Dewpoint: 9.0°C (48°F) [RH = 100%]
Pressure (altimeter): 30.21 inches Hg (1023.0 mb)
Winds: from the SW (220 degrees) at 17 MPH (15 knots; 7.7 m/s)
Visibility: 3 miles ( 5 km)
Ceiling: 300 feet AGL
Clouds: few clouds at 100 feet AGL
broken clouds at 300 feet AGL
broken clouds at 800 feet AGL
Weather: BR  (mist)

METAR text: EICK 221000Z 21016KT 5000 BR FEW003 BKN005 BKN010 09/09 Q1023 TEMPO 4000
Conditions at: EICK (CORK ARPT/CORCAI, IE) observed 1000 UTC 22 March 2019
Temperature: 9.0°C (48°F)
Dewpoint: 9.0°C (48°F) [RH = 100%]
Pressure (altimeter): 30.21 inches Hg (1023.0 mb)
Winds: from the SSW (210 degrees) at 18 MPH (16 knots; 8.2 m/s)
Visibility: 3 miles ( 5 km)
Ceiling: 500 feet AGL
Clouds: few clouds at 300 feet AGL
broken clouds at 500 feet AGL
broken clouds at 1000 feet AGL
Weather: BR  (mist)

METAR text: EICK 220930Z 21016KT 8000 -DZ BKN006 BKN009 09/09 Q1023 NOSIG
Conditions at: EICK (CORK ARPT/CORCAI, IE) observed 0930 UTC 22 March 2019
Temperature: 9.0°C (48°F)
Dewpoint: 9.0°C (48°F) [RH = 100%]
Pressure (altimeter): 30.21 inches Hg (1023.0 mb)
Winds: from the SSW (210 degrees) at 18 MPH (16 knots; 8.2 m/s)
Visibility: 5 miles ( 8 km)
Ceiling: 600 feet AGL
Clouds: broken clouds at 600 feet AGL
broken clouds at 900 feet AGL
Weather: -DZ  (light drizzle)

METAR text: EICK 220900Z 22016KT 8000 -RADZ FEW005 BKN009 BKN016 09/08 Q1022 TEMPO 4000
Conditions at: EICK (CORK ARPT/CORCAI, IE) observed 0900 UTC 22 March 2019
Temperature: 9.0°C (48°F)
Dewpoint: 8.0°C (46°F) [RH = 93%]
Pressure (altimeter): 30.18 inches Hg (1022.0 mb)
Winds: from the SW (220 degrees) at 18 MPH (16 knots; 8.2 m/s)
Visibility: 5 miles ( 8 km)
Ceiling: 900 feet AGL
Clouds: few clouds at 500 feet AGL
broken clouds at 900 feet AGL
broken clouds at 1600 feet AGL
Weather: -RA -DZ  (light rain, light drizzle)

METAR text: EICK 220830Z 22016KT 9999 -DZ FEW005 BKN009 BKN018 09/08 Q1022 TEMPO 4000
Conditions at: EICK (CORK ARPT/CORCAI, IE) observed 0830 UTC 22 March 2019
Temperature: 9.0°C (48°F)
Dewpoint: 8.0°C (46°F) [RH = 93%]
Pressure (altimeter): 30.18 inches Hg (1022.0 mb)
Winds: from the SW (220 degrees) at 18 MPH (16 knots; 8.2 m/s)
Visibility: 6 or more miles (10+ km)
Ceiling: 900 feet AGL
Clouds: few clouds at 500 feet AGL
broken clouds at 900 feet AGL
broken clouds at 1800 feet AGL
Weather: -DZ  (light drizzle)

METAR text: EICK 220800Z 21011KT 9999 BKN009 BKN022 09/08 Q1022 TEMPO 4000
Conditions at: EICK (CORK ARPT/CORCAI, IE) observed 0800 UTC 22 March 2019
Temperature: 9.0°C (48°F)
Dewpoint: 8.0°C (46°F) [RH = 93%]
Pressure (altimeter): 30.18 inches Hg (1022.0 mb)
Winds: from the SSW (210 degrees) at 13 MPH (11 knots; 5.7 m/s)
Visibility: 6 or more miles (10+ km)
Ceiling: 900 feet AGL
Clouds: broken clouds at 900 feet AGL
broken clouds at 2200 feet AGL
Weather: no significant weather observed at this time

METAR text: EICK 220730Z 22014KT 9999 -DZ BKN009 BKN020 09/08 Q1022 TEMPO 4000
Conditions at: EICK (CORK ARPT/CORCAI, IE) observed 0730 UTC 22 March 2019
Temperature: 9.0°C (48°F)
Dewpoint: 8.0°C (46°F) [RH = 93%]
Pressure (altimeter): 30.18 inches Hg (1022.0 mb)
Winds: from the SW (220 degrees) at 16 MPH (14 knots; 7.2 m/s)
Visibility: 6 or more miles (10+ km)
Ceiling: 900 feet AGL
Clouds: broken clouds at 900 feet AGL
broken clouds at 2000 feet AGL
Weather: -DZ  (light drizzle)

METAR text: EICK 220700Z 22015KT 9999 BKN012 BKN027 09/07 Q1022 NOSIG
Conditions at: EICK (CORK ARPT/CORCAI, IE) observed 0700 UTC 22 March 2019
Temperature: 9.0°C (48°F)
Dewpoint: 7.0°C (45°F) [RH = 87%]
Pressure (altimeter): 30.18 inches Hg (1022.0 mb)
Winds: from the SW (220 degrees) at 17 MPH (15 knots; 7.7 m/s)
Visibility: 6 or more miles (10+ km)
Ceiling: 1200 feet AGL
Clouds: broken clouds at 1200 feet AGL
broken clouds at 2700 feet AGL
Weather: no significant weather observed at this time

METAR text: EICK 220630Z 21015KT 9999 BKN012 BKN022 08/07 Q1022 NOSIG
Conditions at: EICK (CORK ARPT/CORCAI, IE) observed 0630 UTC 22 March 2019
Temperature: 8.0°C (46°F)
Dewpoint: 7.0°C (45°F) [RH = 93%]
Pressure (altimeter): 30.18 inches Hg (1022.0 mb)
Winds: from the SSW (210 degrees) at 17 MPH (15 knots; 7.7 m/s)
Visibility: 6 or more miles (10+ km)
Ceiling: 1200 feet AGL
Clouds: broken clouds at 1200 feet AGL
broken clouds at 2200 feet AGL
Weather: no significant weather observed at this time

METAR text: EICK 220600Z 22017KT 9999 BKN013 BKN022 08/07 Q1022 NOSIG
Conditions at: EICK (CORK ARPT/CORCAI, IE) observed 0600 UTC 22 March 2019
Temperature: 8.0°C (46°F)
Dewpoint: 7.0°C (45°F) [RH = 93%]
Pressure (altimeter): 30.18 inches Hg (1022.0 mb)
Winds: from the SW (220 degrees) at 20 MPH (17 knots; 8.7 m/s)
Visibility: 6 or more miles (10+ km)
Ceiling: 1300 feet AGL
Clouds: broken clouds at 1300 feet AGL
broken clouds at 2200 feet AGL
Weather: no significant weather observed at this time

METAR text: EICK 220530Z 22016KT 9999 SCT012 BKN020 09/07 Q1022 NOSIG
Conditions at: EICK (CORK ARPT/CORCAI, IE) observed 0530 UTC 22 March 2019
Temperature: 9.0°C (48°F)
Dewpoint: 7.0°C (45°F) [RH = 87%]
Pressure (altimeter): 30.18 inches Hg (1022.0 mb)
Winds: from the SW (220 degrees) at 18 MPH (16 knots; 8.2 m/s)
Visibility: 6 or more miles (10+ km)
Ceiling: 2000 feet AGL
Clouds: scattered clouds at 1200 feet AGL
broken clouds at 2000 feet AGL
Weather: no significant weather observed at this time

METAR text: EICK 220500Z 21015KT 9999 FEW003 BKN012 BKN027 09/07 Q1022 NOSIG
Conditions at: EICK (CORK ARPT/CORCAI, IE) observed 0500 UTC 22 March 2019
Temperature: 9.0°C (48°F)
Dewpoint: 7.0°C (45°F) [RH = 87%]
Pressure (altimeter): 30.18 inches Hg (1022.0 mb)
Winds: from the SSW (210 degrees) at 17 MPH (15 knots; 7.7 m/s)
Visibility: 6 or more miles (10+ km)
Ceiling: 1200 feet AGL
Clouds: few clouds at 300 feet AGL
broken clouds at 1200 feet AGL
broken clouds at 2700 feet AGL
Weather: no significant weather observed at this time

METAR text: EICK 220430Z 20013KT 9999 SCT003 BKN021 09/08 Q1023 NOSIG
Conditions at: EICK (CORK ARPT/CORCAI, IE) observed 0430 UTC 22 March 2019
Temperature: 9.0°C (48°F)
Dewpoint: 8.0°C (46°F) [RH = 93%]
Pressure (altimeter): 30.21 inches Hg (1023.0 mb)
Winds: from the SSW (200 degrees) at 15 MPH (13 knots; 6.7 m/s)
Visibility: 6 or more miles (10+ km)
Ceiling: 2100 feet AGL
Clouds: scattered clouds at 300 feet AGL
broken clouds at 2100 feet AGL
Weather: no significant weather observed at this time

METAR text: EICK 220400Z 21017KT 8000 BKN003 08/08 Q1022 TEMPO 0300 OVC001
Conditions at: EICK (CORK ARPT/CORCAI, IE) observed 0400 UTC 22 March 2019
Temperature: 8.0°C (46°F)
Dewpoint: 8.0°C (46°F) [RH = 100%]
Pressure (altimeter): 30.18 inches Hg (1022.0 mb)
Winds: from the SSW (210 degrees) at 20 MPH (17 knots; 8.7 m/s)
Visibility: 5 miles ( 8 km)
Ceiling: 300 feet AGL
Clouds: broken clouds at 300 feet AGL
Weather: no significant weather observed at this time

METAR text: EICK 220330Z 19014KT 6000 -RADZ FEW002 BKN003 08/08 Q1023 TEMPO 0300 OVC001
Conditions at: EICK (CORK ARPT/CORCAI, IE) observed 0330 UTC 22 March 2019
Temperature: 8.0°C (46°F)
Dewpoint: 8.0°C (46°F) [RH = 100%]
Pressure (altimeter): 30.21 inches Hg (1023.0 mb)
Winds: from the S (190 degrees) at 16 MPH (14 knots; 7.2 m/s)
Visibility: 4 miles ( 6 km)
Ceiling: 300 feet AGL
Clouds: few clouds at 200 feet AGL
broken clouds at 300 feet AGL
Weather: -RA -DZ  (light rain, light drizzle)

METAR text: EICK 220300Z 19015KT 8000 FEW002 BKN004 09/08 Q1023 TEMPO 0300 OVC001
Conditions at: EICK (CORK ARPT/CORCAI, IE) observed 0300 UTC 22 March 2019
Temperature: 9.0°C (48°F)
Dewpoint: 8.0°C (46°F) [RH = 93%]
Pressure (altimeter): 30.21 inches Hg (1023.0 mb)
Winds: from the S (190 degrees) at 17 MPH (15 knots; 7.7 m/s)
Visibility: 5 miles ( 8 km)
Ceiling: 400 feet AGL
Clouds: few clouds at 200 feet AGL
broken clouds at 400 feet AGL
Weather: no significant weather observed at this time

METAR text: EICK 220230Z 18015G26KT 8000 FEW002 OVC004 09/09 Q1023 TEMPO 0300 OVC001
Conditions at: EICK (CORK ARPT/CORCAI, IE) observed 0230 UTC 22 March 2019
Temperature: 9.0°C (48°F)
Dewpoint: 9.0°C (48°F) [RH = 100%]
Pressure (altimeter): 30.21 inches Hg (1023.0 mb)
Winds: from the S (180 degrees) at 17 MPH (15 knots; 7.7 m/s)
gusting to 30 MPH (26 knots; 13.4 m/s)
Visibility: 5 miles ( 8 km)
Ceiling: 400 feet AGL
Clouds: few clouds at 200 feet AGL
overcast cloud deck at 400 feet AGL
Weather: no significant weather observed at this time

METAR text: EICK 220200Z 19015KT 8000 FEW002 BKN004 09/09 Q1024 TEMPO 0300 OVC001
Conditions at: EICK (CORK ARPT/CORCAI, IE) observed 0200 UTC 22 March 2019
Temperature: 9.0°C (48°F)
Dewpoint: 9.0°C (48°F) [RH = 100%]
Pressure (altimeter): 30.24 inches Hg (1024.0 mb)
Winds: from the S (190 degrees) at 17 MPH (15 knots; 7.7 m/s)
Visibility: 5 miles ( 8 km)
Ceiling: 400 feet AGL
Clouds: few clouds at 200 feet AGL
broken clouds at 400 feet AGL
Weather: no significant weather observed at this time

METAR text: EICK 220130Z 19014KT 5000 -RA FEW002 BKN004 09/09 Q1024 TEMPO 0300 OVC001
Conditions at: EICK (CORK ARPT/CORCAI, IE) observed 0130 UTC 22 March 2019
Temperature: 9.0°C (48°F)
Dewpoint: 9.0°C (48°F) [RH = 100%]
Pressure (altimeter): 30.24 inches Hg (1024.0 mb)
Winds: from the S (190 degrees) at 16 MPH (14 knots; 7.2 m/s)
Visibility: 3 miles ( 5 km)
Ceiling: 400 feet AGL
Clouds: few clouds at 200 feet AGL
broken clouds at 400 feet AGL
Weather: -RA  (light rain)

METAR text: EICK 220100Z 20014KT 7000 -RA FEW002 BKN004 09/09 Q1025 TEMPO 0300 OVC001
Conditions at: EICK (CORK ARPT/CORCAI, IE) observed 0100 UTC 22 March 2019
Temperature: 9.0°C (48°F)
Dewpoint: 9.0°C (48°F) [RH = 100%]
Pressure (altimeter): 30.27 inches Hg (1025.0 mb)
Winds: from the SSW (200 degrees) at 16 MPH (14 knots; 7.2 m/s)
Visibility: 4 miles ( 7 km)
Ceiling: 400 feet AGL
Clouds: few clouds at 200 feet AGL
broken clouds at 400 feet AGL
Weather: -RA  (light rain)

METAR text: EICK 220030Z 20014KT 6000 -RA SCT002 BKN003 09/09 Q1025 TEMPO 0300 OVC001
Conditions at: EICK (CORK ARPT/CORCAI, IE) observed 0030 UTC 22 March 2019
Temperature: 9.0°C (48°F)
Dewpoint: 9.0°C (48°F) [RH = 100%]
Pressure (altimeter): 30.27 inches Hg (1025.0 mb)
Winds: from the SSW (200 degrees) at 16 MPH (14 knots; 7.2 m/s)
Visibility: 4 miles ( 6 km)
Ceiling: 300 feet AGL
Clouds: scattered clouds at 200 feet AGL
broken clouds at 300 feet AGL
Weather: -RA  (light rain)

METAR text: EICK 220000Z 20014KT 3000 -RADZ SCT002 BKN004 09/09 Q1025 TEMPO 0300 OVC001
Conditions at: EICK (CORK ARPT/CORCAI, IE) observed 0000 UTC 22 March 2019
Temperature: 9.0°C (48°F)
Dewpoint: 9.0°C (48°F) [RH = 100%]
Pressure (altimeter): 30.27 inches Hg (1025.0 mb)
Winds: from the SSW (200 degrees) at 16 MPH (14 knots; 7.2 m/s)
Visibility: 1.86 miles (2.99 km)
Ceiling: 400 feet AGL
Clouds: scattered clouds at 200 feet AGL
broken clouds at 400 feet AGL
Weather: -RA -DZ  (light rain, light drizzle)

METAR text: EICK 212330Z 21016KT 3000 -DZ SCT001 BKN002 09/09 Q1026 TEMPO 0300 OVC001
Conditions at: EICK (CORK ARPT/CORCAI, IE) observed 2330 UTC 21 March 2019
Temperature: 9.0°C (48°F)
Dewpoint: 9.0°C (48°F) [RH = 100%]
Pressure (altimeter): 30.30 inches Hg (1026.0 mb)
Winds: from the SSW (210 degrees) at 18 MPH (16 knots; 8.2 m/s)
Visibility: 1.86 miles (2.99 km)
Ceiling: 200 feet AGL
Clouds: scattered clouds at 100 feet AGL
broken clouds at 200 feet AGL
Weather: -DZ  (light drizzle)

METAR text: EICK 212300Z 20014KT 2000 -DZ SCT001 BKN002 09/09 Q1026 TEMPO 0300 OVC001
Conditions at: EICK (CORK ARPT/CORCAI, IE) observed 2300 UTC 21 March 2019
Temperature: 9.0°C (48°F)
Dewpoint: 9.0°C (48°F) [RH = 100%]
Pressure (altimeter): 30.30 inches Hg (1026.0 mb)
Winds: from the SSW (200 degrees) at 16 MPH (14 knots; 7.2 m/s)
Visibility: 1.24 miles (2.00 km)
Ceiling: 200 feet AGL
Clouds: scattered clouds at 100 feet AGL
broken clouds at 200 feet AGL
Weather: -DZ  (light drizzle)

METAR text: EICK 212230Z 19010KT 0500 R16/0650N R34/0550N FG -DZ SCT001 OVC002 09/09 Q1026 TEMPO 0300 OVC001
Conditions at: EICK (CORK ARPT/CORCAI, IE) observed 2230 UTC 21 March 2019
Temperature: 9.0°C (48°F)
Dewpoint: 9.0°C (48°F) [RH = 100%]
Pressure (altimeter): 30.30 inches Hg (1026.0 mb)
Winds: from the S (190 degrees) at 12 MPH (10 knots; 5.1 m/s)
Visibility: 0.31 miles (0.50 km)
Ceiling: 200 feet AGL
Clouds: scattered clouds at 100 feet AGL
overcast cloud deck at 200 feet AGL
Weather: -DZ FG  (light drizzle, fog)

METAR text: EICK 212200Z 19011KT 1600 -DZ SCT001 OVC002 09/09 Q1027 TEMPO 0300 OVC001
Conditions at: EICK (CORK ARPT/CORCAI, IE) observed 2200 UTC 21 March 2019
Temperature: 9.0°C (48°F)
Dewpoint: 9.0°C (48°F) [RH = 100%]
Pressure (altimeter): 30.32 inches Hg (1027.0 mb)
Winds: from the S (190 degrees) at 13 MPH (11 knots; 5.7 m/s)
Visibility: 0.99 miles (1.59 km)
Ceiling: 200 feet AGL
Clouds: scattered clouds at 100 feet AGL
overcast cloud deck at 200 feet AGL
Weather: -DZ  (light drizzle)

METAR text: EICK 212130Z 17009KT 0300 R16/0450N R34/0500N FG -DZ OVC001 09/09 Q1027 NOSIG
Conditions at: EICK (CORK ARPT/CORCAI, IE) observed 2130 UTC 21 March 2019
Temperature: 9.0°C (48°F)
Dewpoint: 9.0°C (48°F) [RH = 100%]
Pressure (altimeter): 30.32 inches Hg (1027.0 mb)
Winds: from the S (170 degrees) at 10 MPH (9 knots; 4.6 m/s)
Visibility: 0.19 miles (0.31 km)
Ceiling: 100 feet AGL
Clouds: overcast cloud deck at 100 feet AGL
Weather: -DZ FG  (light drizzle, fog)

METAR text: EICK 212100Z 18008KT 0300 R16/0450N R34/0450N FG -DZ OVC001 09/09 Q1028 NOSIG
Conditions at: EICK (CORK ARPT/CORCAI, IE) observed 2100 UTC 21 March 2019
Temperature: 9.0°C (48°F)
Dewpoint: 9.0°C (48°F) [RH = 100%]
Pressure (altimeter): 30.35 inches Hg (1028.0 mb)
Winds: from the S (180 degrees) at 9 MPH (8 knots; 4.1 m/s)
Visibility: 0.19 miles (0.31 km)
Ceiling: 100 feet AGL
Clouds: overcast cloud deck at 100 feet AGL
Weather: -DZ FG  (light drizzle, fog)

METAR text: EICK 212030Z 18009KT 0300 R16/0450N R34/0450N FG -DZ OVC001 09/09 Q1028 NOSIG
Conditions at: EICK (CORK ARPT/CORCAI, IE) observed 2030 UTC 21 March 2019
Temperature: 9.0°C (48°F)
Dewpoint: 9.0°C (48°F) [RH = 100%]
Pressure (altimeter): 30.35 inches Hg (1028.0 mb)
Winds: from the S (180 degrees) at 10 MPH (9 knots; 4.6 m/s)
Visibility: 0.19 miles (0.31 km)
Ceiling: 100 feet AGL
Clouds: overcast cloud deck at 100 feet AGL
Weather: -DZ FG  (light drizzle, fog)

METAR text: EICK 212000Z 18009KT 0400 R16/0550D R34/0600N FG SCT001 OVC002 09/09 Q1028 TEMPO 2000
Conditions at: EICK (CORK ARPT/CORCAI, IE) observed 2000 UTC 21 March 2019
Temperature: 9.0°C (48°F)
Dewpoint: 9.0°C (48°F) [RH = 100%]
Pressure (altimeter): 30.35 inches Hg (1028.0 mb)
Winds: from the S (180 degrees) at 10 MPH (9 knots; 4.6 m/s)
Visibility: 0.25 miles (0.40 km)
Ceiling: 200 feet AGL
Clouds: scattered clouds at 100 feet AGL
overcast cloud deck at 200 feet AGL
Weather: FG  (fog)

METAR text: EICK 211930Z 18007KT 0500 R16/1200D R34/0700D FG SCT001 OVC002 09/09 Q1028 TEMPO 2000
Conditions at: EICK (CORK ARPT/CORCAI, IE) observed 1930 UTC 21 March 2019
Temperature: 9.0°C (48°F)
Dewpoint: 9.0°C (48°F) [RH = 100%]
Pressure (altimeter): 30.35 inches Hg (1028.0 mb)
Winds: from the S (180 degrees) at 8 MPH (7 knots; 3.6 m/s)
Visibility: 0.31 miles (0.50 km)
Ceiling: 200 feet AGL
Clouds: scattered clouds at 100 feet AGL
overcast cloud deck at 200 feet AGL
Weather: FG  (fog)

METAR text: EICK 211900Z 20008KT 160V230 0500 R16/P200 R34/1500N -DZ FG OVC001 09/09 Q1029 TEMPO 2000
Conditions at: EICK (CORK ARPT/CORCAI, IE) observed 1900 UTC 21 March 2019
Temperature: 9.0°C (48°F)
Dewpoint: 9.0°C (48°F) [RH = 100%]
Pressure (altimeter): 30.38 inches Hg (1029.0 mb)
Winds: from the SSW (200 degrees) at 9 MPH (8 knots; 4.1 m/s)
Visibility: 0.31 miles (0.50 km)
Ceiling: 100 feet AGL
Clouds: overcast cloud deck at 100 feet AGL
Weather: -DZ FG  (light drizzle, fog)

METAR text: EICK 211830Z 19009KT 160V230 0700 R16/1100D R34/P2000 -DZ FG OVC002 09/09 Q1029 TEMPO 2000
Conditions at: EICK (CORK ARPT/CORCAI, IE) observed 1830 UTC 21 March 2019
Temperature: 9.0°C (48°F)
Dewpoint: 9.0°C (48°F) [RH = 100%]
Pressure (altimeter): 30.38 inches Hg (1029.0 mb)
Winds: from the S (190 degrees) at 10 MPH (9 knots; 4.6 m/s)
Visibility: 0.43 miles (0.69 km)
Ceiling: 200 feet AGL
Clouds: overcast cloud deck at 200 feet AGL
Weather: -DZ FG  (light drizzle, fog)

METAR text: EICK 211800Z 20010KT 0700 R16/P2000 R34/P2000 -DZ FG OVC002 09/09 Q1029 TEMPO 2000
Conditions at: EICK (CORK ARPT/CORCAI, IE) observed 1800 UTC 21 March 2019
Temperature: 9.0°C (48°F)
Dewpoint: 9.0°C (48°F) [RH = 100%]
Pressure (altimeter): 30.38 inches Hg (1029.0 mb)
Winds: from the SSW (200 degrees) at 12 MPH (10 knots; 5.1 m/s)
Visibility: 0.43 miles (0.69 km)
Ceiling: 200 feet AGL
Clouds: overcast cloud deck at 200 feet AGL
Weather: -DZ FG  (light drizzle, fog)

METAR text: EICK 211730Z 19010KT 4000 -DZ OVC002 09/09 Q1029 TEMPO 5000
Conditions at: EICK (CORK ARPT/CORCAI, IE) observed 1730 UTC 21 March 2019
Temperature: 9.0°C (48°F)
Dewpoint: 9.0°C (48°F) [RH = 100%]
Pressure (altimeter): 30.38 inches Hg (1029.0 mb)
Winds: from the S (190 degrees) at 12 MPH (10 knots; 5.1 m/s)
Visibility: 2.49 miles (4.01 km)
Ceiling: 200 feet AGL
Clouds: overcast cloud deck at 200 feet AGL
Weather: -DZ  (light drizzle)

METAR text: EICK 211700Z 20010KT 9999 BKN006 BKN011 10/09 Q1029 TEMPO 4000
Conditions at: EICK (CORK ARPT/CORCAI, IE) observed 1700 UTC 21 March 2019
Temperature: 10.0°C (50°F)
Dewpoint: 9.0°C (48°F) [RH = 93%]
Pressure (altimeter): 30.38 inches Hg (1029.0 mb)
Winds: from the SSW (200 degrees) at 12 MPH (10 knots; 5.1 m/s)
Visibility: 6 or more miles (10+ km)
Ceiling: 600 feet AGL
Clouds: broken clouds at 600 feet AGL
broken clouds at 1100 feet AGL
Weather: no significant weather observed at this time

METAR text: EICK 211630Z 20010KT 9999 BKN005 BKN008 10/09 Q1029 TEMPO 4000
Conditions at: EICK (CORK ARPT/CORCAI, IE) observed 1630 UTC 21 March 2019
Temperature: 10.0°C (50°F)
Dewpoint: 9.0°C (48°F) [RH = 93%]
Pressure (altimeter): 30.38 inches Hg (1029.0 mb)
Winds: from the SSW (200 degrees) at 12 MPH (10 knots; 5.1 m/s)
Visibility: 6 or more miles (10+ km)
Ceiling: 500 feet AGL
Clouds: broken clouds at 500 feet AGL
broken clouds at 800 feet AGL
Weather: no significant weather observed at this time

METAR text: EICK 211600Z 20010KT 9999 -DZ BKN003 BKN011 10/09 Q1029 TEMPO 4000
Conditions at: EICK (CORK ARPT/CORCAI, IE) observed 1600 UTC 21 March 2019
Temperature: 10.0°C (50°F)
Dewpoint: 9.0°C (48°F) [RH = 93%]
Pressure (altimeter): 30.38 inches Hg (1029.0 mb)
Winds: from the SSW (200 degrees) at 12 MPH (10 knots; 5.1 m/s)
Visibility: 6 or more miles (10+ km)
Ceiling: 300 feet AGL
Clouds: broken clouds at 300 feet AGL
broken clouds at 1100 feet AGL
Weather: -DZ  (light drizzle)

METAR text: EICK 211530Z 20010KT 160V230 9999 FEW008 BKN013 11/09 Q1030 NOSIG
Conditions at: EICK (CORK ARPT/CORCAI, IE) observed 1530 UTC 21 March 2019
Temperature: 11.0°C (52°F)
Dewpoint: 9.0°C (48°F) [RH = 87%]
Pressure (altimeter): 30.41 inches Hg (1030.0 mb)
Winds: from the SSW (200 degrees) at 12 MPH (10 knots; 5.1 m/s)
Visibility: 6 or more miles (10+ km)
Ceiling: 1300 feet AGL
Clouds: few clouds at 800 feet AGL
broken clouds at 1300 feet AGL
Weather: no significant weather observed at this time

METAR text: EICK 211500Z 21013KT 9999 SCT007 BKN015 11/09 Q1030 NOSIG
Conditions at: EICK (CORK ARPT/CORCAI, IE) observed 1500 UTC 21 March 2019
Temperature: 11.0°C (52°F)
Dewpoint: 9.0°C (48°F) [RH = 87%]
Pressure (altimeter): 30.41 inches Hg (1030.0 mb)
Winds: from the SSW (210 degrees) at 15 MPH (13 knots; 6.7 m/s)
Visibility: 6 or more miles (10+ km)
Ceiling: 1500 feet AGL
Clouds: scattered clouds at 700 feet AGL
broken clouds at 1500 feet AGL
Weather: no significant weather observed at this time

METAR text: EICK 211430Z 21012KT 9999 BKN010 BKN013 11/09 Q1030 NOSIG
Conditions at: EICK (CORK ARPT/CORCAI, IE) observed 1430 UTC 21 March 2019
Temperature: 11.0°C (52°F)
Dewpoint: 9.0°C (48°F) [RH = 87%]
Pressure (altimeter): 30.41 inches Hg (1030.0 mb)
Winds: from the SSW (210 degrees) at 14 MPH (12 knots; 6.2 m/s)
Visibility: 6 or more miles (10+ km)
Ceiling: 1000 feet AGL
Clouds: broken clouds at 1000 feet AGL
broken clouds at 1300 feet AGL
Weather: no significant weather observed at this time

METAR text: EICK 211400Z 22012KT 9999 SCT009 BKN011 11/09 Q1031 NOSIG
Conditions at: EICK (CORK ARPT/CORCAI, IE) observed 1400 UTC 21 March 2019
Temperature: 11.0°C (52°F)
Dewpoint: 9.0°C (48°F) [RH = 87%]
Pressure (altimeter): 30.44 inches Hg (1031.0 mb)
Winds: from the SW (220 degrees) at 14 MPH (12 knots; 6.2 m/s)
Visibility: 6 or more miles (10+ km)
Ceiling: 1100 feet AGL
Clouds: scattered clouds at 900 feet AGL
broken clouds at 1100 feet AGL
Weather: no significant weather observed at this time

METAR text: EICK 211330Z 21011KT 9999 FEW009 BKN011 BKN014 11/09 Q1031 NOSIG
Conditions at: EICK (CORK ARPT/CORCAI, IE) observed 1330 UTC 21 March 2019
Temperature: 11.0°C (52°F)
Dewpoint: 9.0°C (48°F) [RH = 87%]
Pressure (altimeter): 30.44 inches Hg (1031.0 mb)
Winds: from the SSW (210 degrees) at 13 MPH (11 knots; 5.7 m/s)
Visibility: 6 or more miles (10+ km)
Ceiling: 1100 feet AGL
Clouds: few clouds at 900 feet AGL
broken clouds at 1100 feet AGL
broken clouds at 1400 feet AGL
Weather: no significant weather observed at this time

METAR text: EICK 211300Z 22010KT 9999 BKN008 BKN014 11/09 Q1031 NOSIG
Conditions at: EICK (CORK ARPT/CORCAI, IE) observed 1300 UTC 21 March 2019
Temperature: 11.0°C (52°F)
Dewpoint: 9.0°C (48°F) [RH = 87%]
Pressure (altimeter): 30.44 inches Hg (1031.0 mb)
Winds: from the SW (220 degrees) at 12 MPH (10 knots; 5.1 m/s)
Visibility: 6 or more miles (10+ km)
Ceiling: 800 feet AGL
Clouds: broken clouds at 800 feet AGL
broken clouds at 1400 feet AGL
Weather: no significant weather observed at this time

METAR text: EICK 211230Z 21011KT 9999 BKN008 BKN014 11/10 Q1032 NOSIG
Conditions at: EICK (CORK ARPT/CORCAI, IE) observed 1230 UTC 21 March 2019
Temperature: 11.0°C (52°F)
Dewpoint: 10.0°C (50°F) [RH = 94%]
Pressure (altimeter): 30.47 inches Hg (1032.0 mb)
Winds: from the SSW (210 degrees) at 13 MPH (11 knots; 5.7 m/s)
Visibility: 6 or more miles (10+ km)
Ceiling: 800 feet AGL
Clouds: broken clouds at 800 feet AGL
broken clouds at 1400 feet AGL
Weather: no significant weather observed at this time

Forecast for: EICK (CORK ARPT/CORCAI, IE)
Text: TAF EICK 222300Z 2300/2324 30006KT 9999 SCT020 BKN040
Forecast period: 0000 UTC 23 March 2019 to 0000 UTC 24 March 2019
Forecast type: FROM: standard forecast or significant change
Winds: from the WNW (300 degrees) at 7 MPH (6 knots; 3.1 m/s)
Visibility: 6 or more miles 10+ km)
Ceiling: 4000 feet AGL
Clouds: scattered clouds at 2000 feet AGL
broken clouds at 4000 feet AGL
Weather: no significant weather forecast for this period